CYYT

St. John's International Airport

St. John's, Canada
METAR CYYT 220600Z 26013G19KT 15SM OVC018 01/M01 A2979 RMK SC8 SLP095
Observed Flight Rules
Apr-22 @ 06:00 UTC (49 minutes ago) Marginal Visual Flight Rules
Wind Visibility Clouds
260° at 13 knots
 Gusting to 19 knots
15 miles
  • Overcast at 1,800' AGL
Temperatures Readings
Current 1°C / 34°F
Dewpoint -1°C / 30°F
Humidity 87%
Altimeter 29.79" Hg
Pressure 1009.5 hPa
Elevation 140
METAR CYYT 220600Z 26013G19KT 15SM OVC018 01/M01 A2979 RMK SC8 SLP095
Observed Flight Rules
Apr-22 @ 06:00 UTC
(49 minutes ago)
MVFR
Wind Visibility
260° at 13 knots
 Gusting to 19 knots
15 miles
Clouds
  • Overcast at 1,800' AGL
Temperature Dewpoint
1°C / 34°F -1°C / 30°F
Humidity Altimeter Pressure
87% 29.79" Hg 1009.5 hPa